sensor_id;sensor_type;location;lat;lon;timestamp;pressure;altitude;pressure_sealevel;temperature;humidity
18985;BME280;9626;52.552;13.436;2022-07-23T00:01:17;101107.19;;;18.46;100.00
18985;BME280;9626;52.552;13.436;2022-07-23T00:03:42;101104.88;;;18.57;100.00
18985;BME280;9626;52.552;13.436;2022-07-23T00:06:08;101098.44;;;18.62;100.00
18985;BME280;9626;52.552;13.436;2022-07-23T00:08:33;101097.63;;;18.59;100.00
18985;BME280;9626;52.552;13.436;2022-07-23T00:10:59;101091.56;;;18.56;100.00
18985;BME280;9626;52.552;13.436;2022-07-23T00:13:26;101090.22;;;18.46;100.00
18985;BME280;9626;52.552;13.436;2022-07-23T00:15:51;101084.72;;;18.30;100.00
18985;BME280;9626;52.552;13.436;2022-07-23T00:18:17;101083.69;;;18.32;100.00
18985;BME280;9626;52.552;13.436;2022-07-23T00:20:43;101080.97;;;18.34;100.00
18985;BME280;9626;52.552;13.436;2022-07-23T00:23:08;101091.34;;;18.21;100.00
18985;BME280;9626;52.552;13.436;2022-07-23T00:25:34;101086.56;;;18.08;100.00
18985;BME280;9626;52.552;13.436;2022-07-23T00:28:01;101080.75;;;17.99;100.00
18985;BME280;9626;52.552;13.436;2022-07-23T00:30:27;101075.09;;;18.05;100.00
18985;BME280;9626;52.552;13.436;2022-07-23T00:32:56;101071.34;;;18.09;100.00
18985;BME280;9626;52.552;13.436;2022-07-23T00:35:27;101073.44;;;18.21;100.00
18985;BME280;9626;52.552;13.436;2022-07-23T00:37:54;101076.22;;;18.39;100.00
18985;BME280;9626;52.552;13.436;2022-07-23T00:40:20;101078.91;;;18.39;100.00
18985;BME280;9626;52.552;13.436;2022-07-23T00:42:46;101075.97;;;18.45;100.00
18985;BME280;9626;52.552;13.436;2022-07-23T00:45:12;101078.22;;;18.54;100.00
18985;BME280;9626;52.552;13.436;2022-07-23T00:47:38;101080.75;;;18.57;100.00
18985;BME280;9626;52.552;13.436;2022-07-23T00:50:06;101094.06;;;18.59;100.00
18985;BME280;9626;52.552;13.436;2022-07-23T00:52:33;101088.94;;;18.54;100.00
18985;BME280;9626;52.552;13.436;2022-07-23T00:55:00;101082.25;;;18.44;100.00
18985;BME280;9626;52.552;13.436;2022-07-23T00:57:26;101076.59;;;18.31;100.00
18985;BME280;9626;52.552;13.436;2022-07-23T00:59:51;101074.72;;;18.33;100.00
18985;BME280;9626;52.552;13.436;2022-07-23T01:02:17;101091.94;;;18.28;100.00
18985;BME280;9626;52.552;13.436;2022-07-23T01:04:42;101086.13;;;18.18;100.00
18985;BME280;9626;52.552;13.436;2022-07-23T01:07:08;101094.56;;;18.29;100.00
18985;BME280;9626;52.552;13.436;2022-07-23T01:09:34;101084.28;;;18.39;100.00
18985;BME280;9626;52.552;13.436;2022-07-23T01:12:00;101087.34;;;18.50;100.00
18985;BME280;9626;52.552;13.436;2022-07-23T01:14:25;101087.34;;;18.50;100.00
18985;BME280;9626;52.552;13.436;2022-07-23T01:16:52;101094.88;;;18.42;100.00
18985;BME280;9626;52.552;13.436;2022-07-23T01:19:19;101091.16;;;18.26;100.00
18985;BME280;9626;52.552;13.436;2022-07-23T01:21:47;101081.00;;;18.32;100.00
18985;BME280;9626;52.552;13.436;2022-07-23T01:24:13;101072.63;;;18.40;100.00
18985;BME280;9626;52.552;13.436;2022-07-23T01:26:42;101070.00;;;18.38;100.00
18985;BME280;9626;52.552;13.436;2022-07-23T01:29:07;101066.16;;;18.44;100.00
18985;BME280;9626;52.552;13.436;2022-07-23T01:31:33;101068.34;;;18.36;100.00
18985;BME280;9626;52.552;13.436;2022-07-23T01:33:59;101062.72;;;18.42;100.00
18985;BME280;9626;52.552;13.436;2022-07-23T01:36:43;101053.00;;;18.39;100.00
18985;BME280;9626;52.552;13.436;2022-07-23T01:39:08;101057.47;;;18.39;100.00
18985;BME280;9626;52.552;13.436;2022-07-23T01:41:34;101062.19;;;18.34;100.00
18985;BME280;9626;52.552;13.436;2022-07-23T01:44:00;101057.94;;;18.09;100.00
18985;BME280;9626;52.552;13.436;2022-07-23T01:46:25;101056.59;;;18.19;100.00
18985;BME280;9626;52.552;13.436;2022-07-23T01:48:51;101058.03;;;18.27;100.00
18985;BME280;9626;52.552;13.436;2022-07-23T01:51:17;101059.78;;;18.28;100.00
18985;BME280;9626;52.552;13.436;2022-07-23T01:59:59;101058.94;;;18.27;100.00
18985;BME280;9626;52.552;13.436;2022-07-23T02:02:24;101039.16;;;18.30;100.00
18985;BME280;9626;52.552;13.436;2022-07-23T02:04:50;101054.66;;;18.23;100.00
18985;BME280;9626;52.552;13.436;2022-07-23T02:09:43;101059.53;;;18.34;100.00
18985;BME280;9626;52.552;13.436;2022-07-23T02:12:08;101056.03;;;18.32;100.00
18985;BME280;9626;52.552;13.436;2022-07-23T02:14:34;101046.47;;;18.26;100.00
18985;BME280;9626;52.552;13.436;2022-07-23T02:16:59;101046.66;;;18.21;100.00
18985;BME280;9626;52.552;13.436;2022-07-23T02:19:25;101035.81;;;18.24;100.00
18985;BME280;9626;52.552;13.436;2022-07-23T02:21:51;101050.75;;;18.30;100.00
18985;BME280;9626;52.552;13.436;2022-07-23T02:24:16;101048.66;;;18.37;100.00
18985;BME280;9626;52.552;13.436;2022-07-23T02:26:42;101056.97;;;18.31;100.00
18985;BME280;9626;52.552;13.436;2022-07-23T02:29:08;101041.97;;;18.27;100.00
18985;BME280;9626;52.552;13.436;2022-07-23T02:31:33;101053.50;;;18.29;100.00
18985;BME280;9626;52.552;13.436;2022-07-23T02:33:59;101047.19;;;18.30;100.00
18985;BME280;9626;52.552;13.436;2022-07-23T02:36:25;101047.63;;;18.20;100.00
18985;BME280;9626;52.552;13.436;2022-07-23T02:38:50;101045.34;;;18.11;100.00
18985;BME280;9626;52.552;13.436;2022-07-23T02:41:16;101045.56;;;18.06;100.00
18985;BME280;9626;52.552;13.436;2022-07-23T02:43:41;101049.03;;;18.08;100.00
18985;BME280;9626;52.552;13.436;2022-07-23T02:46:07;101046.69;;;18.01;100.00
18985;BME280;9626;52.552;13.436;2022-07-23T02:48:32;101057.56;;;17.98;100.00
18985;BME280;9626;52.552;13.436;2022-07-23T02:50:58;101057.41;;;18.01;100.00
18985;BME280;9626;52.552;13.436;2022-07-23T02:53:24;101060.31;;;17.96;100.00
18985;BME280;9626;52.552;13.436;2022-07-23T02:56:08;101068.41;;;17.95;100.00
18985;BME280;9626;52.552;13.436;2022-07-23T02:58:33;101059.59;;;17.91;100.00
18985;BME280;9626;52.552;13.436;2022-07-23T03:00:59;101061.97;;;17.78;100.00
18985;BME280;9626;52.552;13.436;2022-07-23T03:03:25;101060.06;;;17.80;100.00
18985;BME280;9626;52.552;13.436;2022-07-23T03:05:50;101052.94;;;17.81;100.00
18985;BME280;9626;52.552;13.436;2022-07-23T03:08:16;101062.75;;;17.80;100.00
18985;BME280;9626;52.552;13.436;2022-07-23T03:10:41;101059.53;;;17.72;100.00
18985;BME280;9626;52.552;13.436;2022-07-23T03:13:07;101048.69;;;17.75;100.00
18985;BME280;9626;52.552;13.436;2022-07-23T03:15:32;101048.59;;;17.78;100.00
18985;BME280;9626;52.552;13.436;2022-07-23T03:17:58;101048.59;;;17.57;100.00
18985;BME280;9626;52.552;13.436;2022-07-23T03:20:24;101061.69;;;17.43;100.00
18985;BME280;9626;52.552;13.436;2022-07-23T03:22:49;101065.41;;;17.39;100.00
18985;BME280;9626;52.552;13.436;2022-07-23T03:25:15;101054.97;;;17.33;100.00
18985;BME280;9626;52.552;13.436;2022-07-23T03:27:40;101060.94;;;17.39;100.00
18985;BME280;9626;52.552;13.436;2022-07-23T03:30:06;101060.88;;;17.41;100.00
18985;BME280;9626;52.552;13.436;2022-07-23T03:32:32;101071.06;;;17.53;100.00
18985;BME280;9626;52.552;13.436;2022-07-23T03:34:57;101063.97;;;17.52;100.00
18985;BME280;9626;52.552;13.436;2022-07-23T03:37:23;101071.25;;;17.49;100.00
18985;BME280;9626;52.552;13.436;2022-07-23T03:39:48;101066.34;;;17.38;100.00
18985;BME280;9626;52.552;13.436;2022-07-23T03:42:14;101078.66;;;17.42;100.00
18985;BME280;9626;52.552;13.436;2022-07-23T03:44:39;101086.69;;;17.42;100.00
18985;BME280;9626;52.552;13.436;2022-07-23T03:47:06;101082.09;;;17.46;100.00
18985;BME280;9626;52.552;13.436;2022-07-23T03:49:32;101091.97;;;17.44;100.00
18985;BME280;9626;52.552;13.436;2022-07-23T03:51:58;101098.47;;;17.38;100.00
18985;BME280;9626;52.552;13.436;2022-07-23T03:54:23;101095.00;;;17.36;100.00
18985;BME280;9626;52.552;13.436;2022-07-23T03:56:49;101096.59;;;17.40;100.00
18985;BME280;9626;52.552;13.436;2022-07-23T03:59:14;101094.72;;;17.42;100.00
18985;BME280;9626;52.552;13.436;2022-07-23T04:01:40;101099.91;;;17.47;100.00
18985;BME280;9626;52.552;13.436;2022-07-23T04:04:05;101104.63;;;17.40;100.00
18985;BME280;9626;52.552;13.436;2022-07-23T04:06:31;101095.78;;;17.38;100.00
18985;BME280;9626;52.552;13.436;2022-07-23T04:08:57;101098.47;;;17.38;100.00
18985;BME280;9626;52.552;13.436;2022-07-23T04:11:23;101097.59;;;17.37;100.00
18985;BME280;9626;52.552;13.436;2022-07-23T04:13:48;101091.31;;;17.38;100.00
18985;BME280;9626;52.552;13.436;2022-07-23T04:16:14;101078.66;;;17.42;100.00
18985;BME280;9626;52.552;13.436;2022-07-23T04:18:40;101065.28;;;17.42;100.00
18985;BME280;9626;52.552;13.436;2022-07-23T04:21:05;101074.13;;;17.44;100.00
18985;BME280;9626;52.552;13.436;2022-07-23T04:23:31;101064.41;;;17.42;99.22
18985;BME280;9626;52.552;13.436;2022-07-23T04:25:56;101064.56;;;17.38;99.35
18985;BME280;9626;52.552;13.436;2022-07-23T04:28:22;101083.38;;;17.37;98.88
18985;BME280;9626;52.552;13.436;2022-07-23T04:30:47;101072.91;;;17.31;98.54
18985;BME280;9626;52.552;13.436;2022-07-23T04:33:13;101070.97;;;17.34;97.89
18985;BME280;9626;52.552;13.436;2022-07-23T04:35:38;101070.78;;;17.39;97.33
18985;BME280;9626;52.552;13.436;2022-07-23T04:38:04;101062.75;;;17.39;96.54
18985;BME280;9626;52.552;13.436;2022-07-23T04:40:29;101053.03;;;17.36;96.39
18985;BME280;9626;52.552;13.436;2022-07-23T04:42:56;101078.03;;;17.35;100.00
18985;BME280;9626;52.552;13.436;2022-07-23T04:45:22;101094.69;;;17.21;100.00
18985;BME280;9626;52.552;13.436;2022-07-23T04:47:51;101121.38;;;17.01;100.00
18985;BME280;9626;52.552;13.436;2022-07-23T04:50:16;101125.69;;;16.81;100.00
18985;BME280;9626;52.552;13.436;2022-07-23T04:52:47;101113.34;;;16.53;100.00
18985;BME280;9626;52.552;13.436;2022-07-23T04:55:13;101112.97;;;16.41;100.00
18985;BME280;9626;52.552;13.436;2022-07-23T04:57:38;101132.78;;;16.35;100.00
18985;BME280;9626;52.552;13.436;2022-07-23T05:00:04;101136.41;;;16.32;100.00
18985;BME280;9626;52.552;13.436;2022-07-23T05:02:30;101135.53;;;16.32;100.00
18985;BME280;9626;52.552;13.436;2022-07-23T05:04:55;101134.13;;;16.21;100.00
18985;BME280;9626;52.552;13.436;2022-07-23T05:07:21;101134.13;;;16.21;100.00
18985;BME280;9626;52.552;13.436;2022-07-23T05:09:46;101116.91;;;16.05;100.00
18985;BME280;9626;52.552;13.436;2022-07-23T05:12:12;101091.13;;;16.04;100.00
18985;BME280;9626;52.552;13.436;2022-07-23T05:15:01;101089.97;;;16.11;100.00
18985;BME280;9626;52.552;13.436;2022-07-23T05:17:27;101104.44;;;16.05;100.00
18985;BME280;9626;52.552;13.436;2022-07-23T05:19:52;101096.06;;;15.89;100.00
18985;BME280;9626;52.552;13.436;2022-07-23T05:22:18;101085.31;;;15.93;100.00
18985;BME280;9626;52.552;13.436;2022-07-23T05:24:43;101093.22;;;15.96;100.00
18985;BME280;9626;52.552;13.436;2022-07-23T05:27:09;101089.88;;;15.89;100.00
18985;BME280;9626;52.552;13.436;2022-07-23T05:29:35;101092.34;;;15.95;100.00
18985;BME280;9626;52.552;13.436;2022-07-23T05:32:00;101094.72;;;16.03;100.00
18985;BME280;9626;52.552;13.436;2022-07-23T05:34:26;101103.63;;;16.03;100.00
18985;BME280;9626;52.552;13.436;2022-07-23T05:36:57;101092.69;;;16.10;100.00
18985;BME280;9626;52.552;13.436;2022-07-23T05:39:23;101081.28;;;16.06;100.00
18985;BME280;9626;52.552;13.436;2022-07-23T05:41:48;101091.06;;;16.05;100.00
18985;BME280;9626;52.552;13.436;2022-07-23T05:44:14;101102.31;;;15.90;100.00
18985;BME280;9626;52.552;13.436;2022-07-23T05:46:39;101095.28;;;15.87;100.00
18985;BME280;9626;52.552;13.436;2022-07-23T05:49:05;101104.44;;;15.79;100.00
18985;BME280;9626;52.552;13.436;2022-07-23T05:51:30;101085.91;;;15.74;100.00
18985;BME280;9626;52.552;13.436;2022-07-23T05:57:33;101127.44;;;15.84;100.00
18985;BME280;9626;52.552;13.436;2022-07-23T05:59:59;101133.31;;;15.94;100.00
18985;BME280;9626;52.552;13.436;2022-07-23T06:02:24;101128.47;;;15.80;100.00
18985;BME280;9626;52.552;13.436;2022-07-23T06:04:50;101135.84;;;15.72;100.00
18985;BME280;9626;52.552;13.436;2022-07-23T06:07:16;101135.00;;;15.70;100.00
18985;BME280;9626;52.552;13.436;2022-07-23T06:09:42;101139.72;;;15.62;100.00
18985;BME280;9626;52.552;13.436;2022-07-23T06:12:08;101134.75;;;15.78;100.00
18985;BME280;9626;52.552;13.436;2022-07-23T06:14:33;101113.25;;;15.82;100.00
18985;BME280;9626;52.552;13.436;2022-07-23T06:16:59;101105.09;;;15.87;100.00
18985;BME280;9626;52.552;13.436;2022-07-23T06:19:37;101097.72;;;15.94;100.00
18985;BME280;9626;52.552;13.436;2022-07-23T06:22:03;101090.00;;;15.86;100.00
18985;BME280;9626;52.552;13.436;2022-07-23T06:24:29;101101.66;;;15.83;100.00
18985;BME280;9626;52.552;13.436;2022-07-23T06:26:54;101095.22;;;15.89;100.00
18985;BME280;9626;52.552;13.436;2022-07-23T06:29:20;101095.44;;;15.83;100.00
18985;BME280;9626;52.552;13.436;2022-07-23T06:31:45;101098.88;;;15.86;100.00
18985;BME280;9626;52.552;13.436;2022-07-23T06:34:11;101113.84;;;15.91;100.00
18985;BME280;9626;52.552;13.436;2022-07-23T06:36:43;101106.75;;;15.89;100.00
18985;BME280;9626;52.552;13.436;2022-07-23T06:39:09;101103.56;;;15.78;100.00
18985;BME280;9626;52.552;13.436;2022-07-23T06:41:34;101098.16;;;15.81;100.00
18985;BME280;9626;52.552;13.436;2022-07-23T06:44:00;101079.53;;;15.80;100.00
18985;BME280;9626;52.552;13.436;2022-07-23T06:46:25;101073.66;;;15.95;100.00
18985;BME280;9626;52.552;13.436;2022-07-23T06:48:51;101077.56;;;16.10;100.00
18985;BME280;9626;52.552;13.436;2022-07-23T06:51:16;101083.19;;;16.26;100.00
18985;BME280;9626;52.552;13.436;2022-07-23T06:53:42;101073.84;;;16.38;100.00
18985;BME280;9626;52.552;13.436;2022-07-23T06:56:07;101063.94;;;16.42;100.00
18985;BME280;9626;52.552;13.436;2022-07-23T06:58:33;101063.97;;;16.40;100.00
18985;BME280;9626;52.552;13.436;2022-07-23T07:00:59;101082.41;;;16.24;100.00
18985;BME280;9626;52.552;13.436;2022-07-23T07:03:24;101080.38;;;16.31;100.00
18985;BME280;9626;52.552;13.436;2022-07-23T07:05:50;101085.78;;;16.29;100.00
18985;BME280;9626;52.552;13.436;2022-07-23T07:08:15;101089.44;;;16.27;100.00
18985;BME280;9626;52.552;13.436;2022-07-23T07:11:05;101078.91;;;16.22;100.00
18985;BME280;9626;52.552;13.436;2022-07-23T07:13:35;101080.47;;;16.28;100.00
18985;BME280;9626;52.552;13.436;2022-07-23T07:16:01;101098.50;;;16.22;100.00
18985;BME280;9626;52.552;13.436;2022-07-23T07:18:39;101111.47;;;16.32;100.00
18985;BME280;9626;52.552;13.436;2022-07-23T07:21:06;101127.88;;;16.22;100.00
18985;BME280;9626;52.552;13.436;2022-07-23T07:23:31;101125.19;;;16.22;100.00
18985;BME280;9626;52.552;13.436;2022-07-23T07:25:57;101137.41;;;16.30;100.00
18985;BME280;9626;52.552;13.436;2022-07-23T07:28:22;101131.94;;;16.33;100.00
18985;BME280;9626;52.552;13.436;2022-07-23T07:31:13;101145.09;;;16.39;100.00
18985;BME280;9626;52.552;13.436;2022-07-23T07:33:39;101142.81;;;16.52;100.00
18985;BME280;9626;52.552;13.436;2022-07-23T07:36:04;101129.88;;;16.65;100.00
18985;BME280;9626;52.552;13.436;2022-07-23T07:38:49;101125.38;;;16.65;100.00
18985;BME280;9626;52.552;13.436;2022-07-23T07:41:18;101122.72;;;16.65;100.00
18985;BME280;9626;52.552;13.436;2022-07-23T07:43:48;101121.38;;;16.77;100.00
18985;BME280;9626;52.552;13.436;2022-07-23T07:46:35;101129.28;;;16.80;100.00
18985;BME280;9626;52.552;13.436;2022-07-23T07:49:01;101124.50;;;16.88;100.00
18985;BME280;9626;52.552;13.436;2022-07-23T07:51:27;101114.59;;;16.92;100.00
18985;BME280;9626;52.552;13.436;2022-07-23T07:53:52;101107.25;;;16.97;100.00
18985;BME280;9626;52.552;13.436;2022-07-23T07:56:37;101115.22;;;16.99;100.00
18985;BME280;9626;52.552;13.436;2022-07-23T07:59:03;101100.81;;;17.03;100.00
18985;BME280;9626;52.552;13.436;2022-07-23T08:01:28;101077.66;;;17.02;100.00
18985;BME280;9626;52.552;13.436;2022-07-23T08:03:59;101081.13;;;17.04;100.00
18985;BME280;9626;52.552;13.436;2022-07-23T08:06:25;101087.97;;;17.11;100.00
18985;BME280;9626;52.552;13.436;2022-07-23T08:08:50;101097.63;;;17.15;100.00
18985;BME280;9626;52.552;13.436;2022-07-23T08:11:16;101097.22;;;17.02;100.00
18985;BME280;9626;52.552;13.436;2022-07-23T08:13:41;101100.03;;;16.99;100.00
18985;BME280;9626;52.552;13.436;2022-07-23T08:16:10;101090.22;;;17.22;100.00
18985;BME280;9626;52.552;13.436;2022-07-23T08:18:36;101091.94;;;17.45;100.00
18985;BME280;9626;52.552;13.436;2022-07-23T08:21:02;101090.75;;;17.52;100.00
18985;BME280;9626;52.552;13.436;2022-07-23T08:23:27;101093.69;;;17.67;100.00
18985;BME280;9626;52.552;13.436;2022-07-23T08:25:53;101099.72;;;17.72;100.00
18985;BME280;9626;52.552;13.436;2022-07-23T08:28:18;101083.59;;;17.94;100.00
18985;BME280;9626;52.552;13.436;2022-07-23T08:30:45;101084.16;;;18.42;100.00
18985;BME280;9626;52.552;13.436;2022-07-23T08:33:15;101094.25;;;18.94;100.00
18985;BME280;9626;52.552;13.436;2022-07-23T08:35:50;101092.47;;;19.49;100.00
18985;BME280;9626;52.552;13.436;2022-07-23T08:38:21;101090.66;;;19.67;100.00
18985;BME280;9626;52.552;13.436;2022-07-23T08:40:49;101086.16;;;19.85;100.00
18985;BME280;9626;52.552;13.436;2022-07-23T08:43:20;101085.59;;;19.96;100.00
18985;BME280;9626;52.552;13.436;2022-07-23T08:45:48;101095.16;;;20.01;100.00
18985;BME280;9626;52.552;13.436;2022-07-23T08:48:16;101104.50;;;20.45;100.00
18985;BME280;9626;52.552;13.436;2022-07-23T08:50:48;101104.16;;;20.67;99.72
18985;BME280;9626;52.552;13.436;2022-07-23T08:53:15;101104.91;;;20.87;94.93
18985;BME280;9626;52.552;13.436;2022-07-23T08:55:46;101108.19;;;20.92;95.25
18985;BME280;9626;52.552;13.436;2022-07-23T08:58:13;101114.28;;;20.96;94.05
18985;BME280;9626;52.552;13.436;2022-07-23T09:00:38;101094.34;;;21.46;90.01
18985;BME280;9626;52.552;13.436;2022-07-23T09:03:04;101091.38;;;21.35;84.53
18985;BME280;9626;52.552;13.436;2022-07-23T09:05:29;101091.06;;;21.09;87.39
18985;BME280;9626;52.552;13.436;2022-07-23T09:08:16;101088.69;;;21.35;85.08
18985;BME280;9626;52.552;13.436;2022-07-23T09:10:52;101093.34;;;21.47;84.27
18985;BME280;9626;52.552;13.436;2022-07-23T09:13:28;101096.50;;;22.00;84.07
18985;BME280;9626;52.552;13.436;2022-07-23T09:15:56;101097.88;;;22.22;80.36
18985;BME280;9626;52.552;13.436;2022-07-23T09:26:30;101098.91;;;20.32;89.06
18985;BME280;9626;52.552;13.436;2022-07-23T09:31:23;101108.03;;;19.95;96.71
18985;BME280;9626;52.552;13.436;2022-07-23T09:33:49;101120.22;;;20.19;93.99
18985;BME280;9626;52.552;13.436;2022-07-23T09:36:15;101126.06;;;20.10;94.27
18985;BME280;9626;52.552;13.436;2022-07-23T09:38:51;101123.50;;;20.24;95.69
18985;BME280;9626;52.552;13.436;2022-07-23T09:41:17;101122.19;;;20.49;93.91
18985;BME280;9626;52.552;13.436;2022-07-23T09:43:43;101123.19;;;20.31;92.60
18985;BME280;9626;52.552;13.436;2022-07-23T09:46:26;101125.25;;;20.25;93.11
18985;BME280;9626;52.552;13.436;2022-07-23T09:48:53;101129.00;;;20.39;93.11
18985;BME280;9626;52.552;13.436;2022-07-23T09:51:20;101129.47;;;20.47;91.72
18985;BME280;9626;52.552;13.436;2022-07-23T09:53:48;101128.16;;;20.38;89.01
18985;BME280;9626;52.552;13.436;2022-07-23T09:56:14;101124.78;;;20.51;90.92
18985;BME280;9626;52.552;13.436;2022-07-23T09:58:40;101110.59;;;20.65;91.03
18985;BME280;9626;52.552;13.436;2022-07-23T10:01:13;101118.25;;;20.88;86.40
18985;BME280;9626;52.552;13.436;2022-07-23T10:03:41;101125.47;;;20.54;83.19
18985;BME280;9626;52.552;13.436;2022-07-23T10:06:08;101138.47;;;20.30;85.32
18985;BME280;9626;52.552;13.436;2022-07-23T10:08:34;101138.22;;;20.00;87.58
18985;BME280;9626;52.552;13.436;2022-07-23T10:11:00;101140.03;;;20.34;87.30
18985;BME280;9626;52.552;13.436;2022-07-23T10:13:27;101146.22;;;20.52;83.54
18985;BME280;9626;52.552;13.436;2022-07-23T10:16:11;101143.44;;;20.71;85.91
18985;BME280;9626;52.552;13.436;2022-07-23T10:18:37;101144.72;;;20.80;84.96
18985;BME280;9626;52.552;13.436;2022-07-23T10:21:06;101139.44;;;20.79;87.78
18985;BME280;9626;52.552;13.436;2022-07-23T10:37:14;101151.59;;;20.70;86.09
18985;BME280;9626;52.552;13.436;2022-07-23T10:40:08;101149.69;;;20.88;86.16
18985;BME280;9626;52.552;13.436;2022-07-23T10:42:35;101147.16;;;21.01;84.55
18985;BME280;9626;52.552;13.436;2022-07-23T10:45:00;101153.53;;;21.00;82.86
18985;BME280;9626;52.552;13.436;2022-07-23T10:47:29;101150.63;;;20.71;79.22
18985;BME280;9626;52.552;13.436;2022-07-23T10:50:26;101150.50;;;20.56;83.04
18985;BME280;9626;52.552;13.436;2022-07-23T10:53:12;101148.41;;;20.62;82.10
18985;BME280;9626;52.552;13.436;2022-07-23T10:55:44;101152.72;;;20.82;83.21
18985;BME280;9626;52.552;13.436;2022-07-23T10:58:10;101151.94;;;20.80;80.74
18985;BME280;9626;52.552;13.436;2022-07-23T11:00:36;101149.16;;;20.81;78.17
18985;BME280;9626;52.552;13.436;2022-07-23T11:03:05;101147.22;;;20.16;81.55
18985;BME280;9626;52.552;13.436;2022-07-23T11:05:45;101151.56;;;20.36;81.34
18985;BME280;9626;52.552;13.436;2022-07-23T11:08:19;101146.22;;;20.70;81.85
18985;BME280;9626;52.552;13.436;2022-07-23T11:26:58;101144.63;;;20.66;78.38
18985;BME280;9626;52.552;13.436;2022-07-23T11:34:40;101135.13;;;20.92;77.92
18985;BME280;9626;52.552;13.436;2022-07-23T11:37:31;101137.72;;;21.09;77.83
18985;BME280;9626;52.552;13.436;2022-07-23T11:39:58;101126.63;;;21.00;77.99
18985;BME280;9626;52.552;13.436;2022-07-23T11:42:24;101129.03;;;21.20;76.58
18985;BME280;9626;52.552;13.436;2022-07-23T11:44:50;101131.03;;;21.33;75.18
18985;BME280;9626;52.552;13.436;2022-07-23T11:47:22;101135.50;;;21.48;74.42
18985;BME280;9626;52.552;13.436;2022-07-23T11:49:59;101131.38;;;21.73;70.85
18985;BME280;9626;52.552;13.436;2022-07-23T11:52:26;101129.09;;;21.81;71.60
18985;BME280;9626;52.552;13.436;2022-07-23T11:55:06;101122.75;;;21.82;70.77
18985;BME280;9626;52.552;13.436;2022-07-23T11:57:40;101121.25;;;21.92;71.18
18985;BME280;9626;52.552;13.436;2022-07-23T12:00:15;101112.94;;;21.81;72.39
18985;BME280;9626;52.552;13.436;2022-07-23T12:02:43;101117.41;;;21.66;71.03
18985;BME280;9626;52.552;13.436;2022-07-23T12:05:24;101122.94;;;21.33;71.81
18985;BME280;9626;52.552;13.436;2022-07-23T12:07:52;101123.31;;;21.10;73.12
18985;BME280;9626;52.552;13.436;2022-07-23T12:15:15;101121.34;;;21.60;71.28
18985;BME280;9626;52.552;13.436;2022-07-23T12:17:44;101120.41;;;22.06;68.71
18985;BME280;9626;52.552;13.436;2022-07-23T12:20:13;101129.28;;;21.78;69.09
18985;BME280;9626;52.552;13.436;2022-07-23T12:22:45;101117.47;;;21.81;70.61
18985;BME280;9626;52.552;13.436;2022-07-23T12:25:15;101120.75;;;21.86;69.37
18985;BME280;9626;52.552;13.436;2022-07-23T12:27:43;101115.28;;;22.02;69.69
18985;BME280;9626;52.552;13.436;2022-07-23T12:33:12;101114.47;;;21.71;69.96
18985;BME280;9626;52.552;13.436;2022-07-23T12:35:43;101116.41;;;21.83;69.78
18985;BME280;9626;52.552;13.436;2022-07-23T12:38:20;101111.81;;;22.00;68.31
18985;BME280;9626;52.552;13.436;2022-07-23T12:40:54;101116.63;;;21.94;69.78
18985;BME280;9626;52.552;13.436;2022-07-23T12:43:22;101111.16;;;22.25;68.80
18985;BME280;9626;52.552;13.436;2022-07-23T12:48:25;101117.47;;;22.40;66.68
18985;BME280;9626;52.552;13.436;2022-07-23T12:53:40;101122.31;;;22.35;67.30
18985;BME280;9626;52.552;13.436;2022-07-23T12:56:07;101112.03;;;22.25;67.05
18985;BME280;9626;52.552;13.436;2022-07-23T12:58:47;101115.66;;;21.95;66.66
18985;BME280;9626;52.552;13.436;2022-07-23T13:01:33;101119.47;;;21.77;68.66
18985;BME280;9626;52.552;13.436;2022-07-23T13:04:19;101117.16;;;21.85;68.40
18985;BME280;9626;52.552;13.436;2022-07-23T13:09:16;101112.94;;;22.55;66.58
18985;BME280;9626;52.552;13.436;2022-07-23T13:11:46;101117.22;;;22.86;66.79
18985;BME280;9626;52.552;13.436;2022-07-23T13:14:21;101116.78;;;23.21;64.71
18985;BME280;9626;52.552;13.436;2022-07-23T13:16:58;101123.19;;;23.06;63.83
18985;BME280;9626;52.552;13.436;2022-07-23T13:19:24;101115.66;;;22.96;62.26
18985;BME280;9626;52.552;13.436;2022-07-23T13:21:50;101111.97;;;22.56;63.73
18985;BME280;9626;52.552;13.436;2022-07-23T13:24:16;101111.69;;;22.46;64.67
18985;BME280;9626;52.552;13.436;2022-07-23T13:26:41;101111.84;;;22.28;65.14
18985;BME280;9626;52.552;13.436;2022-07-23T13:29:10;101104.69;;;21.99;65.70
18985;BME280;9626;52.552;13.436;2022-07-23T13:31:36;101109.09;;;21.85;65.23
18985;BME280;9626;52.552;13.436;2022-07-23T13:34:03;101106.50;;;21.84;66.66
18985;BME280;9626;52.552;13.436;2022-07-23T13:36:29;101114.50;;;22.00;65.78
18985;BME280;9626;52.552;13.436;2022-07-23T13:38:54;101101.53;;;22.21;66.68
18985;BME280;9626;52.552;13.436;2022-07-23T13:41:20;101104.44;;;22.47;64.90
18985;BME280;9626;52.552;13.436;2022-07-23T13:43:45;101094.34;;;22.65;65.00
18985;BME280;9626;52.552;13.436;2022-07-23T13:46:11;101101.34;;;22.82;64.26
18985;BME280;9626;52.552;13.436;2022-07-23T13:48:37;101110.00;;;22.87;62.61
18985;BME280;9626;52.552;13.436;2022-07-23T13:51:02;101104.94;;;22.53;61.25
18985;BME280;9626;52.552;13.436;2022-07-23T13:53:28;101100.59;;;22.51;63.29
18985;BME280;9626;52.552;13.436;2022-07-23T13:55:54;101109.97;;;22.59;64.52
18985;BME280;9626;52.552;13.436;2022-07-23T13:58:20;101105.31;;;22.61;65.46
18985;BME280;9626;52.552;13.436;2022-07-23T14:00:49;101100.00;;;22.60;63.32